Terminal Aerodrome Forecast
Issued by NWS Portland, OR

Home | Current Version | Previous Version | Text Only | Print | Product List | Glossary On
Versions: 1 2 3 4 5 6 7 8 9 10 11 12 13 14 15 16 17 18
000
FTUS46 KPQR 202332
TAFSLE
TAF
KSLE 202332Z 2100/2124 20008KT P6SM VCSH SCT025
     FM210300 17008KT P6SM OVC070
     FM210800 17011G24KT P6SM -RA SCT020 OVC040
     FM211500 18021G29KT 4SM -RA BR OVC019=

USA.gov is the U.S. government's official web portal to all federal, state and local government web resources and services.